sensor_id;sensor_type;location;lat;lon;timestamp;temperature;humidity
43151;DHT22;28755;51.478;5.702;2022-12-07T00:01:18;5.70;99.90
43151;DHT22;28755;51.478;5.702;2022-12-07T00:03:45;5.70;99.90
43151;DHT22;28755;51.478;5.702;2022-12-07T00:06:13;5.60;99.90
43151;DHT22;28755;51.478;5.702;2022-12-07T00:08:39;5.50;99.90
43151;DHT22;28755;51.478;5.702;2022-12-07T00:11:06;5.50;99.90
43151;DHT22;28755;51.478;5.702;2022-12-07T00:13:33;5.50;99.90
43151;DHT22;28755;51.478;5.702;2022-12-07T00:16:01;5.50;99.90
43151;DHT22;28755;51.478;5.702;2022-12-07T00:18:27;5.50;99.90
43151;DHT22;28755;51.478;5.702;2022-12-07T00:20:53;5.50;99.90
43151;DHT22;28755;51.478;5.702;2022-12-07T00:23:18;5.40;99.90
43151;DHT22;28755;51.478;5.702;2022-12-07T00:25:44;5.30;99.90
43151;DHT22;28755;51.478;5.702;2022-12-07T00:28:09;5.30;99.90
43151;DHT22;28755;51.478;5.702;2022-12-07T00:30:36;5.20;99.90
43151;DHT22;28755;51.478;5.702;2022-12-07T00:33:01;5.20;99.90
43151;DHT22;28755;51.478;5.702;2022-12-07T00:35:27;5.20;99.90
43151;DHT22;28755;51.478;5.702;2022-12-07T00:37:52;5.10;99.90
43151;DHT22;28755;51.478;5.702;2022-12-07T00:40:18;5.10;99.90
43151;DHT22;28755;51.478;5.702;2022-12-07T00:42:43;5.10;99.90
43151;DHT22;28755;51.478;5.702;2022-12-07T00:45:09;5.10;99.90
43151;DHT22;28755;51.478;5.702;2022-12-07T00:47:35;5.00;99.90
43151;DHT22;28755;51.478;5.702;2022-12-07T00:50:00;5.00;99.90
43151;DHT22;28755;51.478;5.702;2022-12-07T00:52:26;5.00;99.90
43151;DHT22;28755;51.478;5.702;2022-12-07T00:54:52;4.90;99.90
43151;DHT22;28755;51.478;5.702;2022-12-07T00:57:17;4.80;99.90
43151;DHT22;28755;51.478;5.702;2022-12-07T00:59:43;4.80;99.90
43151;DHT22;28755;51.478;5.702;2022-12-07T01:02:08;4.80;99.90
43151;DHT22;28755;51.478;5.702;2022-12-07T01:04:34;4.70;99.90
43151;DHT22;28755;51.478;5.702;2022-12-07T01:07:00;4.70;99.90
43151;DHT22;28755;51.478;5.702;2022-12-07T01:09:25;4.70;99.90
43151;DHT22;28755;51.478;5.702;2022-12-07T01:11:51;4.70;99.90
43151;DHT22;28755;51.478;5.702;2022-12-07T01:14:17;4.70;99.90
43151;DHT22;28755;51.478;5.702;2022-12-07T01:16:43;4.70;99.90
43151;DHT22;28755;51.478;5.702;2022-12-07T01:19:09;4.70;99.90
43151;DHT22;28755;51.478;5.702;2022-12-07T01:21:35;4.80;99.90
43151;DHT22;28755;51.478;5.702;2022-12-07T01:24:04;4.90;99.90
43151;DHT22;28755;51.478;5.702;2022-12-07T01:26:30;4.90;99.90
43151;DHT22;28755;51.478;5.702;2022-12-07T01:28:56;4.90;99.90
43151;DHT22;28755;51.478;5.702;2022-12-07T01:31:25;4.90;99.90
43151;DHT22;28755;51.478;5.702;2022-12-07T01:33:56;5.00;99.90
43151;DHT22;28755;51.478;5.702;2022-12-07T01:36:32;5.00;99.90
43151;DHT22;28755;51.478;5.702;2022-12-07T01:39:01;5.00;99.90
43151;DHT22;28755;51.478;5.702;2022-12-07T01:41:29;5.10;99.90
43151;DHT22;28755;51.478;5.702;2022-12-07T01:46:39;5.10;99.90
43151;DHT22;28755;51.478;5.702;2022-12-07T01:49:08;5.00;99.90
43151;DHT22;28755;51.478;5.702;2022-12-07T01:51:34;5.10;99.90
43151;DHT22;28755;51.478;5.702;2022-12-07T01:54:02;5.10;99.90
43151;DHT22;28755;51.478;5.702;2022-12-07T01:56:29;5.20;99.90
43151;DHT22;28755;51.478;5.702;2022-12-07T01:58:57;5.20;99.90
43151;DHT22;28755;51.478;5.702;2022-12-07T02:01:23;5.20;99.90
43151;DHT22;28755;51.478;5.702;2022-12-07T02:03:49;5.10;99.90
43151;DHT22;28755;51.478;5.702;2022-12-07T02:06:19;5.10;99.90
43151;DHT22;28755;51.478;5.702;2022-12-07T02:08:46;5.00;99.90
43151;DHT22;28755;51.478;5.702;2022-12-07T02:11:12;5.00;99.90
43151;DHT22;28755;51.478;5.702;2022-12-07T02:13:40;5.00;99.90
43151;DHT22;28755;51.478;5.702;2022-12-07T02:24:14;5.00;99.90
43151;DHT22;28755;51.478;5.702;2022-12-07T02:29:27;5.10;99.90
43151;DHT22;28755;51.478;5.702;2022-12-07T02:32:16;5.10;99.90
43151;DHT22;28755;51.478;5.702;2022-12-07T02:34:50;5.20;99.90
43151;DHT22;28755;51.478;5.702;2022-12-07T02:40:12;5.10;99.90
43151;DHT22;28755;51.478;5.702;2022-12-07T02:42:45;5.10;99.90
43151;DHT22;28755;51.478;5.702;2022-12-07T02:45:13;5.10;99.90
43151;DHT22;28755;51.478;5.702;2022-12-07T02:47:40;5.10;99.90
43151;DHT22;28755;51.478;5.702;2022-12-07T02:50:07;5.10;99.90
43151;DHT22;28755;51.478;5.702;2022-12-07T02:52:33;5.00;99.90
43151;DHT22;28755;51.478;5.702;2022-12-07T02:54:58;4.90;99.90
43151;DHT22;28755;51.478;5.702;2022-12-07T02:57:55;4.80;99.90
43151;DHT22;28755;51.478;5.702;2022-12-07T03:00:27;4.80;99.90
43151;DHT22;28755;51.478;5.702;2022-12-07T03:03:13;4.70;99.90
43151;DHT22;28755;51.478;5.702;2022-12-07T03:08:47;4.70;99.90
43151;DHT22;28755;51.478;5.702;2022-12-07T03:11:32;4.60;99.90
43151;DHT22;28755;51.478;5.702;2022-12-07T03:14:17;4.60;99.90
43151;DHT22;28755;51.478;5.702;2022-12-07T03:16:59;4.60;99.90
43151;DHT22;28755;51.478;5.702;2022-12-07T03:19:27;4.50;99.90
43151;DHT22;28755;51.478;5.702;2022-12-07T03:22:06;4.50;99.90
43151;DHT22;28755;51.478;5.702;2022-12-07T03:24:39;4.50;99.90
43151;DHT22;28755;51.478;5.702;2022-12-07T03:27:16;4.50;99.90
43151;DHT22;28755;51.478;5.702;2022-12-07T03:29:54;4.50;99.90
43151;DHT22;28755;51.478;5.702;2022-12-07T03:32:27;4.50;99.90
43151;DHT22;28755;51.478;5.702;2022-12-07T03:37:43;4.60;99.90
43151;DHT22;28755;51.478;5.702;2022-12-07T03:40:25;4.70;99.90
43151;DHT22;28755;51.478;5.702;2022-12-07T03:42:52;4.90;99.90
43151;DHT22;28755;51.478;5.702;2022-12-07T03:45:22;4.80;99.90
43151;DHT22;28755;51.478;5.702;2022-12-07T03:48:02;4.80;99.90
43151;DHT22;28755;51.478;5.702;2022-12-07T03:50:45;4.80;99.90
43151;DHT22;28755;51.478;5.702;2022-12-07T03:53:33;4.90;99.90
43151;DHT22;28755;51.478;5.702;2022-12-07T03:56:00;4.90;99.90
43151;DHT22;28755;51.478;5.702;2022-12-07T03:58:26;4.90;99.90
43151;DHT22;28755;51.478;5.702;2022-12-07T04:00:52;4.90;99.90
43151;DHT22;28755;51.478;5.702;2022-12-07T04:03:18;4.90;99.90
43151;DHT22;28755;51.478;5.702;2022-12-07T04:05:44;4.90;99.90
43151;DHT22;28755;51.478;5.702;2022-12-07T04:08:10;4.90;99.90
43151;DHT22;28755;51.478;5.702;2022-12-07T04:10:36;4.90;99.90
43151;DHT22;28755;51.478;5.702;2022-12-07T04:13:01;4.90;99.90
43151;DHT22;28755;51.478;5.702;2022-12-07T04:15:27;4.90;99.90
43151;DHT22;28755;51.478;5.702;2022-12-07T04:17:53;4.90;99.90
43151;DHT22;28755;51.478;5.702;2022-12-07T04:20:19;4.90;99.90
43151;DHT22;28755;51.478;5.702;2022-12-07T04:22:45;5.00;99.90
43151;DHT22;28755;51.478;5.702;2022-12-07T04:25:10;5.00;99.90
43151;DHT22;28755;51.478;5.702;2022-12-07T04:27:36;5.10;99.90
43151;DHT22;28755;51.478;5.702;2022-12-07T04:30:02;5.10;99.90
43151;DHT22;28755;51.478;5.702;2022-12-07T04:32:28;5.10;99.90
43151;DHT22;28755;51.478;5.702;2022-12-07T04:34:53;5.10;99.90
43151;DHT22;28755;51.478;5.702;2022-12-07T04:37:19;5.10;99.90
43151;DHT22;28755;51.478;5.702;2022-12-07T04:39:44;5.10;99.90
43151;DHT22;28755;51.478;5.702;2022-12-07T04:42:11;5.10;99.90
43151;DHT22;28755;51.478;5.702;2022-12-07T04:44:38;5.10;99.90
43151;DHT22;28755;51.478;5.702;2022-12-07T04:47:03;5.10;99.90
43151;DHT22;28755;51.478;5.702;2022-12-07T04:49:29;5.10;99.90
43151;DHT22;28755;51.478;5.702;2022-12-07T04:51:55;5.10;99.90
43151;DHT22;28755;51.478;5.702;2022-12-07T04:54:21;5.00;99.90
43151;DHT22;28755;51.478;5.702;2022-12-07T04:56:46;5.00;99.90
43151;DHT22;28755;51.478;5.702;2022-12-07T04:59:14;5.00;99.90
43151;DHT22;28755;51.478;5.702;2022-12-07T05:01:40;5.00;99.90
43151;DHT22;28755;51.478;5.702;2022-12-07T05:04:06;5.00;99.90
43151;DHT22;28755;51.478;5.702;2022-12-07T05:06:32;5.00;99.90
43151;DHT22;28755;51.478;5.702;2022-12-07T05:08:58;5.00;99.90
43151;DHT22;28755;51.478;5.702;2022-12-07T05:11:24;5.00;99.90
43151;DHT22;28755;51.478;5.702;2022-12-07T05:16:32;5.00;99.90
43151;DHT22;28755;51.478;5.702;2022-12-07T05:18:58;5.00;99.90
43151;DHT22;28755;51.478;5.702;2022-12-07T05:21:24;5.00;99.90
43151;DHT22;28755;51.478;5.702;2022-12-07T05:23:50;5.00;99.90
43151;DHT22;28755;51.478;5.702;2022-12-07T05:26:15;5.00;99.90
43151;DHT22;28755;51.478;5.702;2022-12-07T05:28:41;4.90;99.90
43151;DHT22;28755;51.478;5.702;2022-12-07T05:31:07;4.90;99.90
43151;DHT22;28755;51.478;5.702;2022-12-07T05:33:32;4.90;99.90
43151;DHT22;28755;51.478;5.702;2022-12-07T05:35:58;4.80;99.90
43151;DHT22;28755;51.478;5.702;2022-12-07T05:38:24;4.90;99.90
43151;DHT22;28755;51.478;5.702;2022-12-07T05:40:50;4.70;99.90
43151;DHT22;28755;51.478;5.702;2022-12-07T05:43:16;4.70;99.90
43151;DHT22;28755;51.478;5.702;2022-12-07T05:45:41;4.60;99.90
43151;DHT22;28755;51.478;5.702;2022-12-07T05:48:07;4.60;99.90
43151;DHT22;28755;51.478;5.702;2022-12-07T05:50:33;4.50;99.90
43151;DHT22;28755;51.478;5.702;2022-12-07T05:52:58;4.50;99.90
43151;DHT22;28755;51.478;5.702;2022-12-07T05:55:24;4.50;99.90
43151;DHT22;28755;51.478;5.702;2022-12-07T05:57:49;4.40;99.90
43151;DHT22;28755;51.478;5.702;2022-12-07T06:00:34;4.40;99.90
43151;DHT22;28755;51.478;5.702;2022-12-07T06:02:59;4.30;99.90
43151;DHT22;28755;51.478;5.702;2022-12-07T06:05:25;4.30;99.90
43151;DHT22;28755;51.478;5.702;2022-12-07T06:07:50;4.30;99.90
43151;DHT22;28755;51.478;5.702;2022-12-07T06:10:16;4.30;99.90
43151;DHT22;28755;51.478;5.702;2022-12-07T06:12:42;4.30;99.90
43151;DHT22;28755;51.478;5.702;2022-12-07T06:15:09;4.20;99.90
43151;DHT22;28755;51.478;5.702;2022-12-07T06:17:36;4.20;99.90
43151;DHT22;28755;51.478;5.702;2022-12-07T06:20:02;4.30;99.90
43151;DHT22;28755;51.478;5.702;2022-12-07T06:22:28;4.20;99.90
43151;DHT22;28755;51.478;5.702;2022-12-07T06:24:54;4.20;99.90
43151;DHT22;28755;51.478;5.702;2022-12-07T06:27:19;4.10;99.90
43151;DHT22;28755;51.478;5.702;2022-12-07T06:29:45;4.10;99.90
43151;DHT22;28755;51.478;5.702;2022-12-07T06:32:11;4.10;99.90
43151;DHT22;28755;51.478;5.702;2022-12-07T06:34:37;4.00;99.90
43151;DHT22;28755;51.478;5.702;2022-12-07T06:37:02;4.00;99.90
43151;DHT22;28755;51.478;5.702;2022-12-07T06:39:28;4.00;99.90
43151;DHT22;28755;51.478;5.702;2022-12-07T06:41:55;3.90;99.90
43151;DHT22;28755;51.478;5.702;2022-12-07T06:44:22;3.90;99.90
43151;DHT22;28755;51.478;5.702;2022-12-07T06:46:48;3.90;99.90
43151;DHT22;28755;51.478;5.702;2022-12-07T06:49:14;3.90;99.90
43151;DHT22;28755;51.478;5.702;2022-12-07T06:51:39;3.90;99.90
43151;DHT22;28755;51.478;5.702;2022-12-07T06:54:09;3.90;99.90
43151;DHT22;28755;51.478;5.702;2022-12-07T06:56:35;3.90;99.90
43151;DHT22;28755;51.478;5.702;2022-12-07T06:59:01;3.80;99.90
43151;DHT22;28755;51.478;5.702;2022-12-07T07:01:26;3.90;99.90
43151;DHT22;28755;51.478;5.702;2022-12-07T07:03:52;3.90;99.90
43151;DHT22;28755;51.478;5.702;2022-12-07T07:06:17;3.90;99.90
43151;DHT22;28755;51.478;5.702;2022-12-07T07:08:43;3.90;99.90
43151;DHT22;28755;51.478;5.702;2022-12-07T07:11:10;4.00;99.90
43151;DHT22;28755;51.478;5.702;2022-12-07T07:13:35;4.10;99.90
43151;DHT22;28755;51.478;5.702;2022-12-07T07:16:01;4.00;99.90
43151;DHT22;28755;51.478;5.702;2022-12-07T07:18:27;4.00;99.90
43151;DHT22;28755;51.478;5.702;2022-12-07T07:20:53;4.00;99.90
43151;DHT22;28755;51.478;5.702;2022-12-07T07:23:20;4.00;99.90
43151;DHT22;28755;51.478;5.702;2022-12-07T07:25:46;4.00;99.90
43151;DHT22;28755;51.478;5.702;2022-12-07T07:28:13;4.10;99.90
43151;DHT22;28755;51.478;5.702;2022-12-07T07:30:38;4.00;99.90
43151;DHT22;28755;51.478;5.702;2022-12-07T07:33:05;4.00;99.90
43151;DHT22;28755;51.478;5.702;2022-12-07T07:35:32;4.00;99.90
43151;DHT22;28755;51.478;5.702;2022-12-07T07:37:59;4.00;99.90
43151;DHT22;28755;51.478;5.702;2022-12-07T07:40:26;4.00;99.90
43151;DHT22;28755;51.478;5.702;2022-12-07T07:42:53;4.00;99.90
43151;DHT22;28755;51.478;5.702;2022-12-07T07:45:19;4.10;99.90
43151;DHT22;28755;51.478;5.702;2022-12-07T07:47:45;4.10;99.90
43151;DHT22;28755;51.478;5.702;2022-12-07T07:50:11;4.20;99.90
43151;DHT22;28755;51.478;5.702;2022-12-07T07:52:36;4.20;99.90
43151;DHT22;28755;51.478;5.702;2022-12-07T07:55:02;4.30;99.90
43151;DHT22;28755;51.478;5.702;2022-12-07T07:57:28;4.30;99.90
43151;DHT22;28755;51.478;5.702;2022-12-07T07:59:53;4.40;99.90
43151;DHT22;28755;51.478;5.702;2022-12-07T08:02:22;4.40;99.90
43151;DHT22;28755;51.478;5.702;2022-12-07T08:04:47;4.40;99.90
43151;DHT22;28755;51.478;5.702;2022-12-07T08:07:14;4.40;99.90
43151;DHT22;28755;51.478;5.702;2022-12-07T08:09:40;4.40;99.90
43151;DHT22;28755;51.478;5.702;2022-12-07T08:12:06;4.40;99.90
43151;DHT22;28755;51.478;5.702;2022-12-07T08:14:32;4.50;99.90
43151;DHT22;28755;51.478;5.702;2022-12-07T08:16:58;4.50;99.90
43151;DHT22;28755;51.478;5.702;2022-12-07T08:19:24;4.60;99.90
43151;DHT22;28755;51.478;5.702;2022-12-07T08:21:49;4.80;99.90
43151;DHT22;28755;51.478;5.702;2022-12-07T08:24:15;5.30;99.90
43151;DHT22;28755;51.478;5.702;2022-12-07T08:26:41;5.70;99.90
43151;DHT22;28755;51.478;5.702;2022-12-07T08:29:07;5.80;99.90
43151;DHT22;28755;51.478;5.702;2022-12-07T08:31:32;5.90;99.90
43151;DHT22;28755;51.478;5.702;2022-12-07T08:33:58;5.80;99.90
43151;DHT22;28755;51.478;5.702;2022-12-07T08:36:23;5.80;99.90
43151;DHT22;28755;51.478;5.702;2022-12-07T08:38:49;6.50;99.90
43151;DHT22;28755;51.478;5.702;2022-12-07T08:41:15;7.50;99.90
43151;DHT22;28755;51.478;5.702;2022-12-07T08:43:41;8.70;99.90
43151;DHT22;28755;51.478;5.702;2022-12-07T08:51:16;10.90;99.90
43151;DHT22;28755;51.478;5.702;2022-12-07T08:53:42;11.40;99.90
43151;DHT22;28755;51.478;5.702;2022-12-07T08:56:09;12.20;99.90
43151;DHT22;28755;51.478;5.702;2022-12-07T08:58:35;13.00;99.90
43151;DHT22;28755;51.478;5.702;2022-12-07T09:01:02;13.10;99.90
43151;DHT22;28755;51.478;5.702;2022-12-07T09:03:28;13.70;99.90
43151;DHT22;28755;51.478;5.702;2022-12-07T09:05:54;13.20;99.90
43151;DHT22;28755;51.478;5.702;2022-12-07T09:08:21;12.10;99.90
43151;DHT22;28755;51.478;5.702;2022-12-07T09:10:47;11.80;99.90
43151;DHT22;28755;51.478;5.702;2022-12-07T09:13:13;13.00;99.90
43151;DHT22;28755;51.478;5.702;2022-12-07T09:15:39;14.00;99.90
43151;DHT22;28755;51.478;5.702;2022-12-07T09:18:04;14.90;99.90
43151;DHT22;28755;51.478;5.702;2022-12-07T09:20:30;15.30;99.90
43151;DHT22;28755;51.478;5.702;2022-12-07T09:22:56;14.10;99.90
43151;DHT22;28755;51.478;5.702;2022-12-07T09:25:21;12.50;99.90
43151;DHT22;28755;51.478;5.702;2022-12-07T09:27:47;11.50;99.90
43151;DHT22;28755;51.478;5.702;2022-12-07T09:30:13;10.50;99.90
43151;DHT22;28755;51.478;5.702;2022-12-07T09:32:39;10.50;99.90
43151;DHT22;28755;51.478;5.702;2022-12-07T09:35:04;10.60;99.90
43151;DHT22;28755;51.478;5.702;2022-12-07T09:37:30;10.30;99.90
43151;DHT22;28755;51.478;5.702;2022-12-07T09:40:00;9.70;99.90
43151;DHT22;28755;51.478;5.702;2022-12-07T09:42:30;9.20;99.90
43151;DHT22;28755;51.478;5.702;2022-12-07T09:44:58;8.90;99.90
43151;DHT22;28755;51.478;5.702;2022-12-07T09:47:25;8.60;99.90
43151;DHT22;28755;51.478;5.702;2022-12-07T09:49:52;8.40;99.90
43151;DHT22;28755;51.478;5.702;2022-12-07T09:52:26;8.20;99.90
43151;DHT22;28755;51.478;5.702;2022-12-07T09:54:52;8.20;99.90
43151;DHT22;28755;51.478;5.702;2022-12-07T09:57:29;8.20;99.90
43151;DHT22;28755;51.478;5.702;2022-12-07T10:00:00;8.40;99.90
43151;DHT22;28755;51.478;5.702;2022-12-07T10:02:39;8.30;99.90
43151;DHT22;28755;51.478;5.702;2022-12-07T10:05:12;8.20;99.90
43151;DHT22;28755;51.478;5.702;2022-12-07T10:07:38;8.20;99.90
43151;DHT22;28755;51.478;5.702;2022-12-07T10:10:14;8.50;99.90
43151;DHT22;28755;51.478;5.702;2022-12-07T10:13:01;9.00;99.90
43151;DHT22;28755;51.478;5.702;2022-12-07T10:15:53;9.90;99.90
43151;DHT22;28755;51.478;5.702;2022-12-07T10:18:34;9.60;99.90
43151;DHT22;28755;51.478;5.702;2022-12-07T10:23:33;9.70;99.90
43151;DHT22;28755;51.478;5.702;2022-12-07T10:25:59;12.50;99.90
43151;DHT22;28755;51.478;5.702;2022-12-07T10:28:34;15.10;99.90
43151;DHT22;28755;51.478;5.702;2022-12-07T10:31:03;17.00;99.90
43151;DHT22;28755;51.478;5.702;2022-12-07T10:33:54;16.40;99.90
43151;DHT22;28755;51.478;5.702;2022-12-07T10:39:04;19.00;99.90
43151;DHT22;28755;51.478;5.702;2022-12-07T10:41:38;20.30;99.90
43151;DHT22;28755;51.478;5.702;2022-12-07T10:44:22;21.30;99.90
43151;DHT22;28755;51.478;5.702;2022-12-07T10:46:59;21.20;97.70
43151;DHT22;28755;51.478;5.702;2022-12-07T10:54:48;19.40;99.10
43151;DHT22;28755;51.478;5.702;2022-12-07T11:05:45;14.30;99.90
43151;DHT22;28755;51.478;5.702;2022-12-07T11:10:55;14.70;99.90
43151;DHT22;28755;51.478;5.702;2022-12-07T11:13:48;15.30;99.90
43151;DHT22;28755;51.478;5.702;2022-12-07T11:16:19;16.00;99.90
43151;DHT22;28755;51.478;5.702;2022-12-07T11:21:58;17.90;99.90
43151;DHT22;28755;51.478;5.702;2022-12-07T11:24:44;19.30;99.90
43151;DHT22;28755;51.478;5.702;2022-12-07T11:30:22;22.60;95.70
43151;DHT22;28755;51.478;5.702;2022-12-07T11:32:55;21.30;96.50
43151;DHT22;28755;51.478;5.702;2022-12-07T11:35:46;18.60;97.60
43151;DHT22;28755;51.478;5.702;2022-12-07T11:38:22;16.10;99.90
43151;DHT22;28755;51.478;5.702;2022-12-07T11:40:51;14.50;99.90
43151;DHT22;28755;51.478;5.702;2022-12-07T11:43:27;12.70;99.90
43151;DHT22;28755;51.478;5.702;2022-12-07T11:46:06;11.90;99.90
43151;DHT22;28755;51.478;5.702;2022-12-07T11:48:40;11.20;99.90
43151;DHT22;28755;51.478;5.702;2022-12-07T11:51:10;10.90;99.90
43151;DHT22;28755;51.478;5.702;2022-12-07T11:53:46;10.60;99.90
43151;DHT22;28755;51.478;5.702;2022-12-07T11:56:15;10.40;99.90
43151;DHT22;28755;51.478;5.702;2022-12-07T12:05:02;9.80;99.90
43151;DHT22;28755;51.478;5.702;2022-12-07T12:07:03;9.70;99.90
43151;DHT22;28755;51.478;5.702;2022-12-07T12:09:44;9.60;99.90
43151;DHT22;28755;51.478;5.702;2022-12-07T12:12:54;9.40;99.90
43151;DHT22;28755;51.478;5.702;2022-12-07T12:15:42;9.40;99.90
43151;DHT22;28755;51.478;5.702;2022-12-07T12:18:35;9.40;99.90
43151;DHT22;28755;51.478;5.702;2022-12-07T12:21:08;9.00;99.90
43151;DHT22;28755;51.478;5.702;2022-12-07T12:23:48;9.00;99.90
43151;DHT22;28755;51.478;5.702;2022-12-07T12:26:23;9.00;99.90
43151;DHT22;28755;51.478;5.702;2022-12-07T12:28:58;9.10;99.90
43151;DHT22;28755;51.478;5.702;2022-12-07T12:33:56;9.50;99.90
43151;DHT22;28755;51.478;5.702;2022-12-07T12:44:03;16.40;99.90
43151;DHT22;28755;51.478;5.702;2022-12-07T12:46:55;16.90;99.90
43151;DHT22;28755;51.478;5.702;2022-12-07T12:51:56;14.80;99.90
43151;DHT22;28755;51.478;5.702;2022-12-07T12:54:28;14.00;99.90
43151;DHT22;28755;51.478;5.702;2022-12-07T12:57:18;12.80;99.90
43151;DHT22;28755;51.478;5.702;2022-12-07T13:02:54;13.40;99.90
43151;DHT22;28755;51.478;5.702;2022-12-07T13:05:26;12.40;99.90
43151;DHT22;28755;51.478;5.702;2022-12-07T13:21:00;14.60;99.90
43151;DHT22;28755;51.478;5.702;2022-12-07T13:28:42;18.00;99.90
43151;DHT22;28755;51.478;5.702;2022-12-07T13:33:46;14.40;99.90
43151;DHT22;28755;51.478;5.702;2022-12-07T13:36:22;12.70;99.90
43151;DHT22;28755;51.478;5.702;2022-12-07T13:38:57;12.00;99.90
43151;DHT22;28755;51.478;5.702;2022-12-07T13:41:28;12.10;99.90
43151;DHT22;28755;51.478;5.702;2022-12-07T13:44:14;12.60;99.90
43151;DHT22;28755;51.478;5.702;2022-12-07T13:49:19;11.60;99.90
43151;DHT22;28755;51.478;5.702;2022-12-07T13:51:45;10.90;99.90
43151;DHT22;28755;51.478;5.702;2022-12-07T13:54:12;10.40;99.90
43151;DHT22;28755;51.478;5.702;2022-12-07T13:56:38;10.60;99.90
43151;DHT22;28755;51.478;5.702;2022-12-07T13:59:16;10.80;99.90
43151;DHT22;28755;51.478;5.702;2022-12-07T14:01:42;11.10;99.90
43151;DHT22;28755;51.478;5.702;2022-12-07T14:04:30;11.30;99.90
43151;DHT22;28755;51.478;5.702;2022-12-07T14:06:56;11.20;99.90
43151;DHT22;28755;51.478;5.702;2022-12-07T14:09:24;11.40;99.90
43151;DHT22;28755;51.478;5.702;2022-12-07T14:11:52;11.10;99.90
43151;DHT22;28755;51.478;5.702;2022-12-07T14:14:21;10.70;99.90
43151;DHT22;28755;51.478;5.702;2022-12-07T14:17:11;10.00;99.90
43151;DHT22;28755;51.478;5.702;2022-12-07T14:19:47;9.70;99.90
43151;DHT22;28755;51.478;5.702;2022-12-07T14:24:57;9.20;99.90
43151;DHT22;28755;51.478;5.702;2022-12-07T14:27:24;9.00;99.90
43151;DHT22;28755;51.478;5.702;2022-12-07T14:29:55;9.10;99.90
43151;DHT22;28755;51.478;5.702;2022-12-07T14:32:27;8.80;99.90
43151;DHT22;28755;51.478;5.702;2022-12-07T14:35:10;8.80;99.90
43151;DHT22;28755;51.478;5.702;2022-12-07T14:37:36;8.80;99.90
43151;DHT22;28755;51.478;5.702;2022-12-07T14:40:03;8.80;99.90
43151;DHT22;28755;51.478;5.702;2022-12-07T14:42:30;8.90;99.90
43151;DHT22;28755;51.478;5.702;2022-12-07T14:44:57;8.70;99.90
43151;DHT22;28755;51.478;5.702;2022-12-07T14:47:24;8.70;99.90
43151;DHT22;28755;51.478;5.702;2022-12-07T14:49:49;8.60;99.90
43151;DHT22;28755;51.478;5.702;2022-12-07T14:52:35;8.50;99.90
43151;DHT22;28755;51.478;5.702;2022-12-07T14:55:01;8.50;99.90
43151;DHT22;28755;51.478;5.702;2022-12-07T14:57:26;8.60;99.90
43151;DHT22;28755;51.478;5.702;2022-12-07T14:59:52;8.50;99.90
43151;DHT22;28755;51.478;5.702;2022-12-07T15:02:17;8.40;99.90
43151;DHT22;28755;51.478;5.702;2022-12-07T15:04:43;8.20;99.90
43151;DHT22;28755;51.478;5.702;2022-12-07T15:07:19;7.90;99.90
43151;DHT22;28755;51.478;5.702;2022-12-07T15:09:46;7.80;99.90
43151;DHT22;28755;51.478;5.702;2022-12-07T15:12:11;7.80;99.90
43151;DHT22;28755;51.478;5.702;2022-12-07T15:14:37;7.60;99.90
43151;DHT22;28755;51.478;5.702;2022-12-07T15:17:02;7.60;99.90
43151;DHT22;28755;51.478;5.702;2022-12-07T15:19:28;7.70;99.90
43151;DHT22;28755;51.478;5.702;2022-12-07T15:21:54;7.80;99.90
43151;DHT22;28755;51.478;5.702;2022-12-07T15:24:21;7.80;99.90
43151;DHT22;28755;51.478;5.702;2022-12-07T15:26:49;7.80;99.90
43151;DHT22;28755;51.478;5.702;2022-12-07T15:29:15;7.90;99.90
43151;DHT22;28755;51.478;5.702;2022-12-07T15:31:41;7.90;99.90
43151;DHT22;28755;51.478;5.702;2022-12-07T15:34:06;7.80;99.90
43151;DHT22;28755;51.478;5.702;2022-12-07T15:36:34;7.80;99.90
43151;DHT22;28755;51.478;5.702;2022-12-07T15:38:59;7.70;99.90
43151;DHT22;28755;51.478;5.702;2022-12-07T15:41:26;7.60;99.90
43151;DHT22;28755;51.478;5.702;2022-12-07T15:43:51;7.50;99.90
43151;DHT22;28755;51.478;5.702;2022-12-07T15:46:37;7.50;99.90
43151;DHT22;28755;51.478;5.702;2022-12-07T15:49:09;7.30;99.90
43151;DHT22;28755;51.478;5.702;2022-12-07T15:51:35;7.30;99.90
43151;DHT22;28755;51.478;5.702;2022-12-07T15:54:00;7.30;99.90
43151;DHT22;28755;51.478;5.702;2022-12-07T15:56:26;7.20;99.90
43151;DHT22;28755;51.478;5.702;2022-12-07T15:58:51;7.20;99.90
43151;DHT22;28755;51.478;5.702;2022-12-07T16:01:18;7.20;99.90
43151;DHT22;28755;51.478;5.702;2022-12-07T16:03:45;7.20;99.90
43151;DHT22;28755;51.478;5.702;2022-12-07T16:06:11;7.10;99.90
43151;DHT22;28755;51.478;5.702;2022-12-07T16:08:42;7.10;99.90
43151;DHT22;28755;51.478;5.702;2022-12-07T16:11:08;7.20;99.90
43151;DHT22;28755;51.478;5.702;2022-12-07T16:13:34;7.10;99.90
43151;DHT22;28755;51.478;5.702;2022-12-07T16:16:06;7.10;99.90
43151;DHT22;28755;51.478;5.702;2022-12-07T16:18:32;7.10;99.90
43151;DHT22;28755;51.478;5.702;2022-12-07T16:20:58;7.10;99.90
43151;DHT22;28755;51.478;5.702;2022-12-07T16:23:24;7.10;99.90
43151;DHT22;28755;51.478;5.702;2022-12-07T16:25:49;7.10;99.90
43151;DHT22;28755;51.478;5.702;2022-12-07T16:28:15;7.10;99.90
43151;DHT22;28755;51.478;5.702;2022-12-07T16:30:40;7.10;99.90
43151;DHT22;28755;51.478;5.702;2022-12-07T16:33:06;7.10;99.90
43151;DHT22;28755;51.478;5.702;2022-12-07T16:35:31;6.90;99.90
43151;DHT22;28755;51.478;5.702;2022-12-07T16:37:57;7.00;99.90
43151;DHT22;28755;51.478;5.702;2022-12-07T16:40:23;7.00;99.90
43151;DHT22;28755;51.478;5.702;2022-12-07T16:42:48;7.00;99.90
43151;DHT22;28755;51.478;5.702;2022-12-07T16:45:14;7.10;99.90
43151;DHT22;28755;51.478;5.702;2022-12-07T16:47:40;7.10;99.90
43151;DHT22;28755;51.478;5.702;2022-12-07T16:50:06;7.00;99.90
43151;DHT22;28755;51.478;5.702;2022-12-07T16:52:33;6.90;99.90
43151;DHT22;28755;51.478;5.702;2022-12-07T16:54:59;6.90;99.90
43151;DHT22;28755;51.478;5.702;2022-12-07T16:57:24;6.80;99.90
43151;DHT22;28755;51.478;5.702;2022-12-07T16:59:51;6.80;99.90
43151;DHT22;28755;51.478;5.702;2022-12-07T17:02:17;6.80;99.90
43151;DHT22;28755;51.478;5.702;2022-12-07T17:04:43;6.80;99.90
43151;DHT22;28755;51.478;5.702;2022-12-07T17:07:09;6.70;99.90
43151;DHT22;28755;51.478;5.702;2022-12-07T17:09:35;6.70;99.90
43151;DHT22;28755;51.478;5.702;2022-12-07T17:12:01;6.80;99.90
43151;DHT22;28755;51.478;5.702;2022-12-07T17:14:26;6.80;99.90
43151;DHT22;28755;51.478;5.702;2022-12-07T17:17:11;6.80;99.90
43151;DHT22;28755;51.478;5.702;2022-12-07T17:19:36;6.80;99.90
43151;DHT22;28755;51.478;5.702;2022-12-07T17:22:02;6.70;99.90
43151;DHT22;28755;51.478;5.702;2022-12-07T17:24:27;6.80;99.90
43151;DHT22;28755;51.478;5.702;2022-12-07T17:26:53;6.70;99.90
43151;DHT22;28755;51.478;5.702;2022-12-07T17:29:19;6.80;99.90
43151;DHT22;28755;51.478;5.702;2022-12-07T17:31:46;6.80;99.90
43151;DHT22;28755;51.478;5.702;2022-12-07T17:34:13;6.80;99.90
43151;DHT22;28755;51.478;5.702;2022-12-07T17:36:39;6.80;99.90
43151;DHT22;28755;51.478;5.702;2022-12-07T17:39:09;6.70;99.90